| time (UTC) | temp F | wind direction | speed MPH | gust MPH | rain 1hr in | rain 24hr in | rain mn in | humidity % | barometer mb |
| 20260505083611 | 56 | 123 | 5.0 | 12.0 | 0.00 | 0.00 | 0.00 | 87 | 1012.2 |
| 20260505083352 | 56 | 130 | 5.0 | 12.0 | 0.00 | 0.00 | 0.00 | 88 | 1012.1 |
| 20260505082131 | 56 | 128 | 6.0 | 10.0 | 0.00 | 0.00 | 0.00 | 88 | 1012.1 |
| 20260505082043 | 56 | 128 | 6.0 | 10.0 | 0.00 | 0.00 | 0.00 | 88 | 1012.1 |
| 20260505080821 | 56 | 132 | 7.0 | 12.0 | 0.00 | 0.00 | 0.00 | 87 | 1012.2 |
| 20260505080656 | 56 | 132 | 7.0 | 12.0 | 0.00 | 0.00 | 0.00 | 87 | 1012.2 |
| 20260505075335 | 57 | 135 | 4.0 | 10.0 | 0.00 | 0.00 | 0.00 | 86 | 1012.1 |
| 20260505073851 | 57 | 116 | 5.0 | 11.0 | 0.00 | 0.00 | 0.00 | 86 | 1011.8 |
| 20260505072944 | 57 | 123 | 5.0 | 9.0 | 0.00 | 0.00 | 0.00 | 85 | 1011.7 |
| 20260505072457 | 57 | 123 | 5.0 | 9.0 | 0.00 | 0.00 | 0.00 | 85 | 1011.7 |
| 20260505072426 | 57 | 123 | 5.0 | 9.0 | 0.00 | 0.00 | 0.00 | 85 | 1011.7 |
| 20260505071112 | 57 | 128 | 5.0 | 11.0 | 0.00 | 0.00 | 0.00 | 85 | 1011.5 |
| 20260505070935 | 57 | 126 | 5.0 | 11.0 | 0.00 | 0.00 | 0.00 | 85 | 1011.5 |
| 20260505065736 | 58 | 121 | 6.0 | 11.0 | 0.00 | 0.00 | 0.00 | 85 | 1011.4 |
| 20260505065626 | 58 | 121 | 6.0 | 11.0 | 0.00 | 0.00 | 0.00 | 85 | 1011.4 |
| 20260505064407 | 58 | 115 | 6.0 | 10.0 | 0.00 | 0.00 | 0.00 | 84 | 1011.3 |
| 20260505064031 | 58 | 115 | 6.0 | 10.0 | 0.00 | 0.00 | 0.00 | 84 | 1011.3 |
| 20260505063201 | 58 | 117 | 4.0 | 9.0 | 0.00 | 0.00 | 0.00 | 84 | 1011.2 |
| 20260505062555 | 58 | 116 | 5.0 | 11.0 | 0.00 | 0.00 | 0.00 | 83 | 1011.1 |
| 20260505061055 | 59 | 129 | 6.0 | 11.0 | 0.00 | 0.00 | 0.00 | 82 | 1010.8 |
| 20260505060427 | 59 | 122 | 7.0 | 10.0 | 0.00 | 0.00 | 0.00 | 82 | 1010.7 |
| 20260505055455 | 60 | 125 | 7.0 | 11.0 | 0.00 | 0.00 | 0.00 | 82 | 1010.5 |
| 20260505054011 | 60 | 141 | 7.0 | 11.0 | 0.00 | 0.00 | 0.00 | 81 | 1010.4 |
| 20260505053832 | 60 | 141 | 7.0 | 11.0 | 0.00 | 0.00 | 0.00 | 81 | 1010.4 |
| 20260505052435 | 60 | 144 | 6.0 | 9.0 | 0.00 | 0.00 | 0.00 | 81 | 1010.3 |
| 20260505051046 | 61 | 145 | 6.0 | 11.0 | 0.00 | 0.00 | 0.00 | 80 | 1010.3 |
| 20260505041432 | 65 | 176 | 4.0 | 7.0 | 0.00 | 0.00 | 0.00 | 73 | 1009.6 |
| 20260505041055 | 65 | 176 | 4.0 | 7.0 | 0.00 | 0.00 | 0.00 | 73 | 1009.6 |
| 20260505035651 | 66 | 161 | 6.0 | 7.0 | 0.00 | 0.00 | 0.00 | 73 | 1009.3 |
| 20260505034141 | 67 | 163 | 5.0 | 7.0 | 0.00 | 0.00 | 0.00 | 71 | 1009.1 |
| 20260505033332 | 68 | 173 | 5.0 | 9.0 | 0.00 | 0.00 | 0.00 | 70 | 1008.9 |
| 20260505032726 | 68 | 168 | 5.0 | 9.0 | 0.00 | 0.00 | 0.00 | 70 | 1008.9 |
| 20260505032116 | 68 | 166 | 6.0 | 9.0 | 0.00 | 0.00 | 0.00 | 69 | 1008.9 |
| 20260505031315 | 69 | 162 | 7.0 | 9.0 | 0.00 | 0.00 | 0.00 | 68 | 1008.8 |
| 20260505030722 | 70 | 159 | 7.0 | 9.0 | 0.00 | 0.00 | 0.00 | 65 | 1008.7 |
| 20260505030011 | 74 | 192 | 3.0 | 5.0 | 0.00 | 0.00 | 0.00 | 60 | 1008.5 |
| 20260505025347 | 74 | 241 | 1.0 | 4.0 | 0.00 | 0.00 | 0.00 | 59 | 1008.5 |
| 20260505024506 | 74 | 253 | 2.0 | 4.0 | 0.00 | 0.00 | 0.00 | 57 | 1008.4 |
| 20260505023155 | 76 | 238 | 2.0 | 4.0 | 0.00 | 0.00 | 0.00 | 56 | 1008.4 |
| 20260505021821 | 73 | 325 | 3.0 | 7.0 | 0.00 | 0.00 | 0.00 | 59 | 1008.4 |
| 20260505021328 | 73 | 320 | 5.0 | 8.0 | 0.00 | 0.00 | 0.00 | 59 | 1008.4 |
| 20260505020501 | 76 | 319 | 5.0 | 9.0 | 0.00 | 0.00 | 0.00 | 58 | 1008.3 |
| 20260505015946 | 77 | 182 | 4.0 | 9.0 | 0.00 | 0.00 | 0.00 | 58 | 1008.3 |
| 20260505014915 | 77 | 168 | 5.0 | 8.0 | 0.00 | 0.00 | 0.00 | 58 | 1008.2 |
| 20260505013455 | 77 | 165 | 6.0 | 8.0 | 0.00 | 0.00 | 0.00 | 57 | 1008.2 |
| 20260505012145 | 78 | 169 | 5.0 | 9.0 | 0.00 | 0.00 | 0.00 | 57 | 1008.3 |
| 20260505010731 | 77 | 156 | 6.0 | 9.0 | 0.00 | 0.00 | 0.00 | 57 | 1008.3 |
| 20260505010356 | 78 | 165 | 6.0 | 8.0 | 0.00 | 0.00 | 0.00 | 57 | 1008.3 |
| 20260505005306 | 78 | 168 | 5.0 | 8.0 | 0.00 | 0.00 | 0.00 | 55 | 1008.3 |
| 20260505005027 | 78 | 168 | 5.0 | 8.0 | 0.00 | 0.00 | 0.00 | 55 | 1008.3 |
| 20260505003706 | 78 | 170 | 6.0 | 8.0 | 0.00 | 0.00 | 0.00 | 54 | 1008.4 |
| 20260505003627 | 78 | 170 | 6.0 | 8.0 | 0.00 | 0.00 | 0.00 | 54 | 1008.4 |
| 20260505002256 | 79 | 166 | 5.0 | 7.0 | 0.00 | 0.00 | 0.00 | 53 | 1008.4 |
| 20260505000906 | 79 | 157 | 4.0 | 6.0 | 0.00 | 0.00 | 0.00 | 52 | 1008.5 |
| 20260504235515 | 80 | 159 | 4.0 | 6.0 | 0.00 | 0.00 | 0.00 | 51 | 1008.5 |
| 20260504234327 | 80 | 158 | 4.0 | 7.0 | 0.00 | 0.00 | 0.00 | 51 | 1008.6 |
| 20260504234146 | 80 | 158 | 4.0 | 7.0 | 0.00 | 0.00 | 0.00 | 51 | 1008.6 |
| 20260504232837 | 80 | 179 | 4.0 | 7.0 | 0.00 | 0.00 | 0.00 | 50 | 1008.5 |
| 20260504231727 | 80 | 148 | 4.0 | 7.0 | 0.00 | 0.00 | 0.00 | 50 | 1008.5 |
| 20260504231541 | 80 | 148 | 4.0 | 7.0 | 0.00 | 0.00 | 0.00 | 50 | 1008.5 |
| 20260504230422 | 78 | 146 | 5.0 | 8.0 | 0.00 | 0.00 | 0.00 | 51 | 1008.7 |
| 20260504230021 | 78 | 146 | 5.0 | 8.0 | 0.00 | 0.00 | 0.00 | 51 | 1008.7 |
| 20260504224721 | 78 | 140 | 5.0 | 8.0 | 0.00 | 0.00 | 0.00 | 51 | 1009.0 |
| 20260504223656 | 80 | 158 | 4.0 | 8.0 | 0.00 | 0.00 | 0.00 | 51 | 1009.0 |
| 20260504223351 | 80 | 152 | 3.0 | 6.0 | 0.00 | 0.00 | 0.00 | 51 | 1009.1 |
| 20260504222336 | 80 | 180 | 3.0 | 5.0 | 0.00 | 0.00 | 0.00 | 52 | 1009.3 |
| 20260504221835 | 80 | 160 | 3.0 | 6.0 | 0.00 | 0.00 | 0.00 | 51 | 1009.3 |
| 20260504220952 | 79 | 180 | 3.0 | 7.0 | 0.00 | 0.00 | 0.00 | 53 | 1009.4 |
| 20260504220426 | 78 | 154 | 5.0 | 7.0 | 0.00 | 0.00 | 0.00 | 55 | 1009.4 |
| 20260504215736 | 77 | 148 | 5.0 | 7.0 | 0.00 | 0.00 | 0.00 | 55 | 1009.5 |
| 20260504215111 | 77 | 149 | 4.0 | 8.0 | 0.00 | 0.00 | 0.00 | 55 | 1009.5 |
| 20260504214536 | 77 | 140 | 4.0 | 8.0 | 0.00 | 0.00 | 0.00 | 56 | 1009.5 |
| 20260504213611 | 76 | 140 | 5.0 | 7.0 | 0.00 | 0.00 | 0.00 | 57 | 1009.5 |
| 20260504213112 | 76 | 156 | 4.0 | 7.0 | 0.00 | 0.00 | 0.00 | 58 | 1009.6 |
| 20260504212215 | 76 | 149 | 4.0 | 8.0 | 0.00 | 0.00 | 0.00 | 59 | 1009.8 |
| 20260504210845 | 75 | 151 | 5.0 | 8.0 | 0.00 | 0.00 | 0.00 | 59 | 1009.8 |
| 20260504210226 | 75 | 142 | 5.0 | 8.0 | 0.00 | 0.00 | 0.00 | 60 | 1009.8 |
| 20260504205425 | 75 | 163 | 5.0 | 8.0 | 0.00 | 0.00 | 0.00 | 59 | 1009.8 |
| 20260504205023 | 75 | 163 | 5.0 | 8.0 | 0.00 | 0.00 | 0.00 | 59 | 1009.8 |
| 20260504204121 | 76 | 155 | 4.0 | 7.0 | 0.00 | 0.00 | 0.00 | 59 | 1009.8 |
| 20260504202731 | 75 | 151 | 4.0 | 7.0 | 0.00 | 0.00 | 0.00 | 60 | 1009.8 |
| 20260504202217 | 75 | 148 | 4.0 | 6.0 | 0.00 | 0.00 | 0.00 | 60 | 1009.8 |
| 20260504201439 | 74 | 143 | 4.0 | 8.0 | 0.00 | 0.00 | 0.00 | 60 | 1009.8 |
| 20260504200836 | 74 | 169 | 3.0 | 8.0 | 0.00 | 0.00 | 0.00 | 60 | 1009.9 |
| 20260504200011 | 73 | 174 | 3.0 | 9.0 | 0.00 | 0.00 | 0.00 | 61 | 1009.8 |
| 20260504194716 | 73 | 159 | 4.0 | 7.0 | 0.00 | 0.00 | 0.00 | 60 | 1009.9 |
| 20260504193211 | 72 | 166 | 6.0 | 8.0 | 0.00 | 0.00 | 0.00 | 59 | 1010.0 |
| 20260504192712 | 73 | 164 | 5.0 | 8.0 | 0.00 | 0.00 | 0.00 | 59 | 1010.0 |
| 20260504191751 | 72 | 170 | 6.0 | 8.0 | 0.00 | 0.00 | 0.00 | 58 | 1010.1 |
| 20260504190434 | 75 | 179 | 4.0 | 6.0 | 0.00 | 0.00 | 0.00 | 55 | 1010.2 |
| 20260504185927 | 75 | 166 | 3.0 | 5.0 | 0.00 | 0.00 | 0.00 | 53 | 1010.3 |
| 20260504185046 | 75 | 123 | 2.0 | 4.0 | 0.00 | 0.00 | 0.00 | 54 | 1010.2 |
| 20260504183531 | 74 | 165 | 2.0 | 6.0 | 0.00 | 0.00 | 0.00 | 56 | 1010.3 |
| 20260504183116 | 73 | 161 | 3.0 | 6.0 | 0.00 | 0.00 | 0.00 | 57 | 1010.2 |
| 20260504181935 | 74 | 170 | 3.0 | 5.0 | 0.00 | 0.00 | 0.00 | 56 | 1010.4 |
| 20260504181742 | 74 | 170 | 3.0 | 5.0 | 0.00 | 0.00 | 0.00 | 56 | 1010.4 |
| 20260504180625 | 72 | 171 | 4.0 | 7.0 | 0.00 | 0.00 | 0.00 | 58 | 1010.3 |
| 20260504175126 | 73 | 158 | 2.0 | 5.0 | 0.00 | 0.00 | 0.00 | 56 | 1010.3 |
| 20260504174947 | 72 | 149 | 3.0 | 5.0 | 0.00 | 0.00 | 0.00 | 57 | 1010.2 |
| 20260504173651 | 71 | 159 | 2.0 | 4.0 | 0.00 | 0.00 | 0.00 | 59 | 1010.3 |
| 20260504173532 | 71 | 159 | 2.0 | 4.0 | 0.00 | 0.00 | 0.00 | 59 | 1010.3 |
| 20260504172346 | 69 | 160 | 4.0 | 5.0 | 0.00 | 0.00 | 0.00 | 60 | 1010.3 |
| 20260504171031 | 69 | 154 | 4.0 | 6.0 | 0.00 | 0.00 | 0.00 | 59 | 1010.3 |
| 20260504170907 | 69 | 147 | 3.0 | 6.0 | 0.00 | 0.00 | 0.00 | 58 | 1010.4 |
| 20260504150716 | 61 | 98 | 1.0 | 3.0 | 0.00 | 0.00 | 0.00 | 73 | 1009.8 |
| 20260504150226 | 61 | 105 | 1.0 | 3.0 | 0.00 | 0.00 | 0.00 | 73 | 1009.7 |
| 20260504141252 | 63 | 114 | 0.0 | 1.0 | 0.00 | 0.00 | 0.00 | 69 | 1009.6 |
| 20260504140626 | 63 | 140 | 0.0 | 1.0 | 0.00 | 0.00 | 0.00 | 70 | 1009.5 |
| 20260504130412 | 54 | 331 | 2.0 | 3.0 | 0.00 | 0.00 | 0.00 | 78 | 1009.1 |
| 20260504100121 | 58 | 280 | 1.0 | 2.0 | 0.00 | 0.00 | 0.00 | 76 | 1008.8 |
| 20260504090136 | 59 | 281 | 1.0 | 2.0 | 0.00 | 0.00 | 0.00 | 72 | 1008.5 |